KTRI/TRI METAR and TAF weather

Enter ICAO airport designator
Station Type Date Time Source
KTRI METAR 2020/11/27 14:53 UTC NOAA

KTRI 271453Z 00000KT 1/2SM BR VV002 07/07 A3018 RMK AO2 SFC VIS 1 SLP214 T00720072 51016


Station Type Date Time Source
KTRI Decoded METAR 2020/11/27 14:53 UTC NOAA

TRI-CITY REGIONAL AIRPORT, TN, United States (KTRI) 36-28N 082-24W 474M
Nov 27, 2020 - 09:53 AM EST / 2020.11.27 1453 UTC
Wind: Calm:0
Visibility: 1/2 mile(s):0
Sky conditions: obscured
Weather: mist
Temperature: 45.0 F (7.2 C)
Dew Point: 45.0 F (7.2 C)
Relative Humidity: 100%
Pressure (altimeter): 30.18 in. Hg (1022 hPa)
Pressure tendency: 0.05 inches (1.6 hPa) higher than three hours ago
ob: KTRI 271453Z 00000KT 1/2SM BR VV002 07/07 A3018 RMK AO2 SFC VIS 1 SLP214 T00720072 51016
cycle: 15

Station Type Date Time Source
KTRI TAF 2020/11/27 14:21 UTC NOAA

TAF
AMD KTRI 271418Z 2714/2812 00000KT 2SM BR BKN004
FM271600 VRB01KT P6SM BKN020
FM271700 VRB02KT P6SM SCT150

Example: see airport list